createdAt,value
2019-05-25T00:00:25.848Z,975.92
2019-05-25T00:01:25.767Z,975.91
2019-05-25T00:02:25.694Z,975.93
2019-05-25T00:03:25.615Z,975.94
2019-05-25T00:04:25.539Z,975.91
2019-05-25T00:05:25.457Z,975.92
2019-05-25T00:06:25.381Z,975.91
2019-05-25T00:07:25.301Z,975.93
2019-05-25T00:08:25.227Z,975.95
2019-05-25T00:09:25.145Z,975.93
2019-05-25T00:10:25.074Z,975.91
2019-05-25T00:11:24.991Z,975.92
2019-05-25T00:12:24.915Z,975.90
2019-05-25T00:13:24.833Z,975.89
2019-05-25T00:14:24.759Z,975.91
2019-05-25T00:15:24.682Z,975.89
2019-05-25T00:16:24.601Z,975.87
2019-05-25T00:17:24.578Z,975.87
2019-05-25T00:18:24.452Z,975.88
2019-05-25T00:19:24.373Z,975.90
2019-05-25T00:20:24.300Z,975.87
2019-05-25T00:21:24.208Z,975.85
2019-05-25T00:22:24.140Z,975.82
2019-05-25T00:23:24.055Z,975.82
2019-05-25T00:24:23.979Z,975.82
2019-05-25T00:25:23.905Z,975.82
2019-05-25T00:26:23.828Z,975.80
2019-05-25T00:27:23.749Z,975.79
2019-05-25T00:28:23.674Z,975.80
2019-05-25T00:29:23.597Z,975.81
2019-05-25T00:30:23.515Z,975.84
2019-05-25T00:31:23.442Z,975.78
2019-05-25T00:32:23.371Z,975.83
2019-05-25T00:33:23.284Z,975.78
2019-05-25T00:34:23.204Z,975.80
2019-05-25T00:35:23.127Z,975.81
2019-05-25T00:36:23.048Z,975.82
2019-05-25T00:37:22.972Z,975.78
2019-05-25T00:38:22.900Z,975.80
2019-05-25T00:39:22.815Z,975.80
2019-05-25T00:40:22.734Z,975.82
2019-05-25T00:41:22.660Z,975.80
2019-05-25T00:42:22.594Z,975.82
2019-05-25T00:43:22.504Z,975.79
2019-05-25T16:22:44.496Z,975.86
2019-05-25T16:23:44.401Z,975.87
2019-05-25T16:24:44.328Z,975.87
2019-05-25T16:25:44.317Z,975.85
2019-05-25T16:26:46.287Z,975.90
2019-05-25T16:27:44.116Z,975.87
2019-05-25T16:28:44.044Z,975.89
2019-05-25T16:29:43.980Z,975.92
2019-05-25T16:30:43.908Z,975.93
2019-05-25T16:31:43.833Z,975.92
2019-05-25T16:33:14.260Z,975.97
2019-05-25T16:33:43.690Z,975.94
2019-05-25T16:34:43.624Z,975.92
2019-05-25T16:35:43.547Z,975.98
2019-05-25T16:36:43.475Z,975.98
2019-05-25T16:37:43.663Z,975.95
2019-05-25T16:38:43.335Z,976.00
2019-05-25T16:39:43.265Z,976.04
2019-05-25T16:40:43.199Z,976.02
2019-05-25T16:41:43.120Z,976.08
2019-05-25T16:42:43.048Z,976.05
2019-05-25T16:43:42.981Z,976.08
2019-05-25T16:44:42.913Z,976.06
2019-05-25T16:45:42.838Z,976.09
2019-05-25T16:46:42.765Z,976.08
2019-05-25T16:47:42.704Z,976.05
2019-05-25T16:48:42.622Z,976.08
2019-05-25T16:49:42.560Z,976.14
2019-05-25T16:50:42.471Z,976.10
2019-05-25T16:51:42.403Z,976.07
2019-05-25T16:52:42.353Z,976.05
2019-05-25T16:53:42.265Z,976.09
2019-05-25T16:54:42.192Z,976.08
2019-05-25T16:55:42.117Z,976.06
2019-05-25T16:56:42.045Z,976.11
2019-05-25T16:57:41.970Z,976.08
2019-05-25T16:58:41.896Z,976.12
2019-05-25T16:59:41.829Z,976.13
2019-05-25T17:00:41.758Z,976.18
2019-05-25T17:01:48.341Z,976.20
2019-05-25T17:02:41.612Z,976.26
2019-05-25T17:03:41.546Z,976.28
2019-05-25T17:04:41.464Z,976.26
2019-05-25T17:05:41.397Z,976.28
2019-05-25T17:06:41.326Z,976.34
2019-05-25T17:07:41.251Z,976.36
2019-05-25T17:08:41.179Z,976.33
2019-05-25T17:09:41.105Z,976.37
2019-05-25T17:10:41.037Z,976.35
2019-05-25T17:11:40.966Z,976.36
2019-05-25T17:12:40.890Z,976.33
2019-05-25T17:13:40.847Z,976.32
2019-05-25T17:14:40.747Z,976.34
2019-05-25T17:15:40.672Z,976.30
2019-05-25T17:16:40.598Z,976.30
2019-05-25T17:17:40.527Z,976.31
2019-05-25T17:18:40.456Z,976.34
2019-05-25T17:19:40.381Z,976.34
2019-05-25T17:20:40.307Z,976.37
2019-05-25T17:21:40.237Z,976.30
2019-05-25T17:22:40.167Z,976.36
2019-05-25T17:23:40.090Z,976.39
2019-05-25T17:24:40.018Z,976.40
2019-05-25T17:25:39.947Z,976.43
2019-05-25T17:26:39.876Z,976.43
2019-05-25T17:27:39.800Z,976.43
2019-05-25T17:28:39.723Z,976.42
2019-05-25T17:29:39.654Z,976.44
2019-05-25T17:30:39.579Z,976.45
2019-05-25T17:31:39.510Z,976.48
2019-05-25T17:32:39.436Z,976.49
2019-05-25T17:33:45.978Z,976.52
2019-05-25T17:34:39.291Z,976.53
2019-05-25T17:35:39.214Z,976.56
2019-05-25T17:36:39.141Z,976.54
2019-05-25T17:37:39.075Z,976.58
2019-05-25T17:38:38.996Z,976.56
2019-05-25T17:39:38.918Z,976.60
2019-05-25T17:40:38.851Z,976.61
2019-05-25T17:41:38.779Z,976.65
2019-05-25T17:42:38.701Z,976.64
2019-05-25T17:43:38.629Z,976.62
2019-05-25T17:44:38.557Z,976.61
2019-05-25T17:45:38.479Z,976.60
2019-05-25T17:46:38.410Z,976.61
2019-05-25T17:47:38.337Z,976.67
2019-05-25T17:48:38.262Z,976.63
2019-05-25T17:49:38.188Z,976.69
2019-05-25T17:50:38.115Z,976.63
2019-05-25T17:51:38.059Z,976.64
2019-05-25T17:52:37.969Z,976.64
2019-05-25T17:53:37.893Z,976.67
2019-05-25T17:54:37.824Z,976.62
2019-05-25T17:55:37.745Z,976.62
2019-05-25T17:56:37.674Z,976.61
2019-05-25T17:57:37.603Z,976.62
2019-05-25T17:58:37.528Z,976.63
2019-05-25T17:59:37.454Z,976.60
2019-05-25T18:00:37.380Z,976.62
2019-05-25T18:01:37.306Z,976.69
2019-05-25T18:02:37.234Z,976.75
2019-05-25T18:03:37.156Z,976.92
2019-05-25T18:04:37.083Z,976.89
2019-05-25T18:05:37.007Z,976.74
2019-05-25T18:06:36.941Z,976.62
2019-05-25T18:07:36.856Z,976.65
2019-05-25T18:08:36.789Z,976.64
2019-05-25T18:09:36.717Z,976.64
2019-05-25T18:10:51.050Z,976.66
2019-05-25T18:11:36.562Z,976.74
2019-05-25T18:12:36.496Z,976.71
2019-05-25T18:13:36.421Z,976.73
2019-05-25T18:14:36.344Z,976.80
2019-05-25T18:15:36.275Z,976.80
2019-05-25T18:16:36.200Z,976.82
2019-05-25T18:17:36.129Z,976.79
2019-05-25T18:18:36.057Z,976.79
2019-05-25T18:19:36.003Z,976.79
2019-05-25T18:20:35.903Z,976.77
2019-05-25T18:21:35.832Z,976.77
2019-05-25T18:22:35.759Z,976.73
2019-05-25T18:23:35.686Z,976.76
2019-05-25T18:24:35.611Z,976.79
2019-05-25T18:25:35.547Z,976.75
2019-05-25T18:26:35.465Z,976.74
2019-05-25T18:27:35.394Z,976.72
2019-05-25T18:28:35.320Z,976.74
2019-05-25T18:29:35.239Z,976.71
2019-05-25T18:30:35.166Z,976.73
2019-05-25T18:31:35.092Z,976.73
2019-05-25T18:32:35.017Z,976.75
2019-05-25T18:33:34.945Z,976.74
2019-05-25T18:34:34.871Z,976.75
2019-05-25T18:35:34.794Z,976.77
2019-05-25T18:36:34.797Z,976.77
2019-05-25T18:37:34.641Z,976.78
2019-05-25T18:38:34.575Z,976.74
2019-05-25T18:39:34.493Z,976.77
2019-05-25T18:40:34.428Z,976.76
2019-05-25T18:41:34.347Z,976.75
2019-05-25T18:42:34.275Z,976.76
2019-05-25T18:43:34.202Z,976.79
2019-05-25T18:44:34.126Z,976.84
2019-05-25T18:45:34.051Z,976.84
2019-05-25T18:46:33.977Z,976.90
2019-05-25T18:47:33.903Z,976.93
2019-05-25T18:48:34.555Z,976.90
2019-05-25T18:49:33.754Z,976.89
2019-05-25T18:50:33.686Z,976.89
2019-05-25T18:51:33.604Z,976.86
2019-05-25T18:52:33.535Z,976.87
2019-05-25T18:53:33.454Z,976.85
2019-05-25T18:54:33.379Z,976.86
2019-05-25T18:55:33.306Z,976.86
2019-05-25T18:56:33.235Z,976.88
2019-05-25T18:57:33.157Z,976.87
2019-05-25T18:58:33.100Z,976.90
2019-05-25T18:59:33.006Z,976.87
2019-05-25T19:00:32.934Z,976.90
2019-05-25T19:01:32.852Z,976.88
2019-05-25T19:02:32.793Z,976.89
2019-05-25T19:03:32.702Z,976.86
2019-05-25T19:04:45.273Z,976.86
2019-05-25T19:05:32.558Z,976.86
2019-05-25T19:06:32.490Z,976.87
2019-05-25T19:07:32.404Z,976.87
2019-05-25T19:08:32.335Z,976.87
2019-05-25T19:09:32.262Z,976.86
2019-05-25T19:10:32.186Z,976.90
2019-05-25T19:11:35.645Z,976.87
2019-05-25T19:12:32.033Z,976.91
2019-05-25T19:13:31.959Z,976.90
2019-05-25T19:14:31.888Z,976.91
2019-05-25T19:15:31.812Z,976.94
2019-05-25T19:16:31.740Z,976.96
2019-05-25T19:17:31.657Z,976.94
2019-05-25T19:18:31.587Z,976.94
2019-05-25T19:19:31.507Z,976.94
2019-05-25T19:20:31.434Z,976.96
2019-05-25T19:21:31.358Z,976.97
2019-05-25T19:22:31.286Z,976.98
2019-05-25T19:23:31.212Z,977.02
2019-05-25T19:24:31.136Z,977.00
2019-05-25T19:25:31.076Z,976.98
2019-05-25T19:26:30.986Z,977.01
2019-05-25T19:27:30.908Z,977.00
2019-05-25T19:28:30.856Z,977.02
2019-05-25T19:29:30.931Z,977.03
2019-05-25T19:30:30.687Z,977.08
2019-05-25T19:31:30.617Z,977.02
2019-05-25T19:32:30.532Z,977.03
2019-05-25T19:33:30.461Z,977.04
2019-05-25T19:34:30.382Z,977.05
2019-05-25T19:35:30.305Z,977.08
2019-05-25T19:36:30.233Z,977.07
2019-05-25T19:37:30.154Z,977.09
2019-05-25T19:38:30.083Z,977.10
2019-05-25T19:39:30.008Z,977.11
2019-05-25T19:40:29.930Z,977.09
2019-05-25T19:41:29.859Z,977.14
2019-05-25T19:42:29.781Z,977.12
2019-05-25T19:43:29.707Z,977.14
2019-05-25T19:44:29.629Z,977.15
2019-05-25T19:45:32.567Z,977.14
2019-05-25T19:46:29.478Z,977.15
2019-05-25T19:47:29.397Z,977.13
2019-05-25T19:48:29.338Z,977.14
2019-05-25T19:49:29.254Z,977.17
2019-05-25T19:50:29.179Z,977.14
2019-05-25T19:51:29.101Z,977.11
2019-05-25T19:52:29.026Z,977.14
2019-05-25T19:53:28.953Z,977.15
2019-05-25T19:54:28.872Z,977.14
2019-05-25T19:55:28.794Z,977.17
2019-05-25T19:56:28.726Z,977.18
2019-05-25T19:57:28.646Z,977.19
2019-05-25T19:58:28.576Z,977.17
2019-05-25T19:59:28.498Z,977.17
2019-05-25T20:00:28.427Z,977.18
2019-05-25T20:01:28.348Z,977.21
2019-05-25T20:02:28.271Z,977.19
2019-05-25T20:03:28.201Z,977.24
2019-05-25T20:04:28.119Z,977.24
2019-05-25T20:05:28.046Z,977.28
2019-05-25T20:06:27.970Z,977.28
2019-05-25T20:07:27.949Z,977.27
2019-05-25T20:08:27.817Z,977.30
2019-05-25T20:09:27.748Z,977.30
2019-05-25T20:10:27.670Z,977.34
2019-05-25T20:11:27.597Z,977.33
2019-05-25T20:12:27.515Z,977.36
2019-05-25T20:13:27.441Z,977.38
2019-05-25T20:14:27.367Z,977.39
2019-05-25T20:15:27.290Z,977.38
2019-05-25T20:16:27.213Z,977.39
2019-05-25T20:17:27.152Z,977.42
2019-05-25T20:18:27.060Z,977.42
2019-05-25T20:19:26.986Z,977.42
2019-05-25T20:20:26.909Z,977.44
2019-05-25T20:21:26.833Z,977.44
2019-05-25T20:22:26.751Z,977.44
2019-05-25T20:23:26.680Z,977.44
2019-05-25T20:24:26.626Z,977.45
2019-05-25T20:25:26.531Z,977.42
2019-05-25T20:26:26.455Z,977.48
2019-05-25T20:27:26.378Z,977.46
2019-05-25T20:28:26.304Z,977.48
2019-05-25T20:29:26.225Z,977.50
2019-05-25T20:30:26.156Z,977.53
2019-05-25T20:31:26.075Z,977.52
2019-05-25T20:32:25.999Z,977.53
2019-05-25T20:33:28.003Z,977.50
2019-05-25T20:34:25.847Z,977.54
2019-05-25T20:35:32.881Z,977.52
2019-05-25T20:36:25.692Z,977.49
2019-05-25T20:37:25.617Z,977.51
2019-05-25T20:38:25.542Z,977.46
2019-05-25T20:39:25.538Z,977.52
2019-05-25T20:40:25.390Z,977.50
2019-05-25T20:41:25.325Z,977.53
2019-05-25T20:42:25.250Z,977.52
2019-05-25T20:43:25.169Z,977.52
2019-05-25T20:44:25.092Z,977.55
2019-05-25T20:45:25.032Z,977.52
2019-05-25T20:46:24.941Z,977.50
2019-05-25T20:47:24.860Z,977.53
2019-05-25T20:48:24.781Z,977.56
2019-05-25T20:49:24.707Z,977.58
2019-05-25T20:50:24.629Z,977.60
2019-05-25T20:51:24.551Z,977.63
2019-05-25T20:52:24.471Z,977.65
2019-05-25T20:53:24.400Z,977.71
2019-05-25T20:54:24.324Z,977.69
2019-05-25T20:55:24.246Z,977.69
2019-05-25T20:56:24.170Z,977.70
2019-05-25T20:57:24.098Z,977.77
2019-05-25T20:58:24.019Z,977.72
2019-05-25T20:59:23.943Z,977.74
2019-05-25T21:00:24.418Z,977.74
2019-05-25T21:01:23.790Z,977.76
2019-05-25T21:02:23.715Z,977.77
2019-05-25T21:03:23.633Z,977.74
2019-05-25T21:04:23.559Z,977.75
2019-05-25T21:05:23.475Z,977.76
2019-05-25T21:06:23.406Z,977.79
2019-05-25T21:07:23.324Z,977.77
2019-05-25T21:08:23.252Z,977.80
2019-05-25T21:09:23.178Z,977.77
2019-05-25T21:10:23.097Z,977.81
2019-05-25T21:11:23.018Z,977.78
2019-05-25T21:12:22.941Z,977.80
2019-05-25T21:13:22.863Z,977.77
2019-05-25T21:14:22.790Z,977.79
2019-05-25T21:15:22.718Z,977.77
2019-05-25T21:16:22.635Z,977.79
2019-05-25T21:17:22.583Z,977.75
2019-05-25T21:18:22.482Z,977.77
2019-05-25T21:19:22.404Z,977.77
2019-05-25T21:20:22.325Z,977.80
2019-05-25T21:21:22.255Z,977.86
2019-05-25T21:22:22.185Z,977.81
2019-05-25T21:23:22.098Z,977.84
2019-05-25T21:24:22.017Z,977.89
2019-05-25T21:25:21.941Z,977.84
2019-05-25T21:26:21.864Z,977.88
2019-05-25T21:27:21.787Z,977.87
2019-05-25T21:28:21.714Z,977.86
2019-05-25T21:29:21.635Z,977.84
2019-05-25T21:30:21.557Z,977.86
2019-05-25T21:31:23.745Z,977.85
2019-05-25T21:32:21.402Z,977.86
2019-05-25T21:33:21.325Z,977.88
2019-05-25T21:34:21.247Z,977.86
2019-05-25T21:35:21.168Z,977.87
2019-05-25T21:36:21.095Z,977.89
2019-05-25T21:37:21.017Z,977.90
2019-05-25T21:38:20.938Z,977.93
2019-05-25T21:39:20.861Z,977.92
2019-05-25T21:40:20.785Z,977.90
2019-05-25T21:41:20.706Z,977.88
2019-05-25T21:42:20.628Z,977.91
2019-05-25T21:43:20.553Z,977.92
2019-05-25T21:44:20.476Z,977.94
2019-05-25T21:45:20.398Z,977.95
2019-05-25T21:46:20.319Z,977.95
2019-05-25T21:47:20.243Z,977.97
2019-05-25T21:48:20.179Z,977.93
2019-05-25T21:49:20.090Z,977.94
2019-05-25T21:50:20.011Z,977.91
2019-05-25T21:51:19.936Z,977.93
2019-05-25T21:52:19.852Z,977.92
2019-05-25T21:53:19.777Z,977.93
2019-05-25T21:54:19.701Z,977.95
2019-05-25T21:55:19.622Z,977.96
2019-05-25T21:56:19.549Z,977.94
2019-05-25T21:57:19.466Z,977.95
2019-05-25T21:58:19.395Z,977.95
2019-05-25T21:59:19.315Z,977.94
2019-05-25T22:00:19.235Z,977.98
2019-05-25T22:01:19.156Z,977.99
2019-05-25T22:02:19.077Z,977.99
2019-05-25T22:03:19.002Z,978.02
2019-05-25T22:04:18.929Z,977.98
2019-05-25T22:05:18.846Z,978.00
2019-05-25T22:06:24.371Z,977.99
2019-05-25T22:07:18.687Z,978.00
2019-05-25T22:08:18.611Z,977.98
2019-05-25T22:09:18.531Z,977.98
2019-05-25T22:10:18.453Z,977.97
2019-05-25T22:11:18.379Z,978.00
2019-05-25T22:12:18.300Z,978.00
2019-05-25T22:13:27.972Z,978.01
2019-05-25T22:14:18.145Z,977.98
2019-05-25T22:15:18.067Z,978.01
2019-05-25T22:16:18.041Z,977.98
2019-05-25T22:17:17.916Z,977.98
2019-05-25T22:18:17.836Z,978.01
2019-05-25T22:19:17.759Z,978.02
2019-05-25T22:20:17.685Z,978.01
2019-05-25T22:21:17.599Z,978.00
2019-05-25T22:22:17.525Z,978.01
2019-05-25T22:23:17.448Z,978.03
2019-05-25T22:24:17.368Z,978.05
2019-05-25T22:25:17.291Z,978.03
2019-05-25T22:26:17.215Z,978.05
2019-05-25T22:27:17.136Z,978.06
2019-05-25T22:28:17.059Z,978.08
2019-05-25T22:29:16.981Z,978.07
2019-05-25T22:30:16.904Z,978.09
2019-05-25T22:31:16.829Z,978.11
2019-05-25T22:32:16.750Z,978.12
2019-05-25T22:33:16.670Z,978.14
2019-05-25T22:34:16.594Z,978.15
2019-05-25T22:35:16.515Z,978.21
2019-05-25T22:36:16.437Z,978.20
2019-05-25T22:37:16.359Z,978.21
2019-05-25T22:38:16.287Z,978.23
2019-05-25T22:39:16.204Z,978.26
2019-05-25T22:40:16.129Z,978.24
2019-05-25T22:41:19.695Z,978.24
2019-05-25T22:42:15.971Z,978.27
2019-05-25T22:43:15.903Z,978.29
2019-05-25T22:44:15.827Z,978.26
2019-05-25T22:45:15.736Z,978.28
2019-05-25T22:46:15.662Z,978.29
2019-05-25T22:47:15.587Z,978.26
2019-05-25T22:48:15.512Z,978.26
2019-05-25T22:49:15.461Z,978.23
2019-05-25T22:50:15.356Z,978.23
2019-05-25T22:51:15.277Z,978.23
2019-05-25T22:52:15.202Z,978.25
2019-05-25T22:53:15.119Z,978.26
2019-05-25T22:54:15.042Z,978.26
2019-05-25T22:55:14.965Z,978.27
2019-05-25T22:56:14.894Z,978.26
2019-05-25T22:57:14.814Z,978.26
2019-05-25T22:58:14.742Z,978.27
2019-05-25T22:59:14.657Z,978.26
2019-05-25T23:00:14.609Z,978.23
2019-05-25T23:01:14.504Z,978.23
2019-05-25T23:02:14.421Z,978.23
2019-05-25T23:03:14.346Z,978.22
2019-05-25T23:04:14.270Z,978.24
2019-05-25T23:05:14.199Z,978.21
2019-05-25T23:06:14.116Z,978.23
2019-05-25T23:07:14.038Z,978.27
2019-05-25T23:08:13.960Z,978.23
2019-05-25T23:09:13.882Z,978.20
2019-05-25T23:10:13.807Z,978.23
2019-05-25T23:11:13.726Z,978.24
2019-05-25T23:12:13.651Z,978.23
2019-05-25T23:13:13.572Z,978.25
2019-05-25T23:14:13.506Z,978.22
2019-05-25T23:15:13.426Z,978.21
2019-05-25T23:16:13.340Z,978.22
2019-05-25T23:17:13.267Z,978.22
2019-05-25T23:18:13.188Z,978.19
2019-05-25T23:19:13.111Z,978.21
2019-05-25T23:20:13.030Z,978.19
2019-05-25T23:21:12.956Z,978.21
2019-05-25T23:22:12.879Z,978.21
2019-05-25T23:23:12.799Z,978.25
2019-05-25T23:24:12.721Z,978.25
2019-05-25T23:25:12.656Z,978.26
2019-05-25T23:26:12.566Z,978.22
2019-05-25T23:27:15.762Z,978.18
2019-05-25T23:28:12.413Z,978.21
2019-05-25T23:29:12.334Z,978.19
2019-05-25T23:30:12.265Z,978.21
2019-05-25T23:31:12.182Z,978.22
2019-05-25T23:32:12.105Z,978.23
2019-05-25T23:33:12.027Z,978.21
2019-05-25T23:34:11.955Z,978.21
2019-05-25T23:35:11.871Z,978.21
2019-05-25T23:36:11.794Z,978.22
2019-05-25T23:37:14.878Z,978.24
2019-05-25T23:38:11.649Z,978.20
2019-05-25T23:39:11.559Z,978.18
2019-05-25T23:40:11.485Z,978.20
2019-05-25T23:41:11.408Z,978.15
2019-05-25T23:42:11.326Z,978.16
2019-05-25T23:43:11.256Z,978.16
2019-05-25T23:44:11.175Z,978.15
2019-05-25T23:45:11.100Z,978.20
2019-05-25T23:46:11.034Z,978.19
2019-05-25T23:47:10.945Z,978.17
2019-05-25T23:48:10.870Z,978.18
2019-05-25T23:49:10.789Z,978.15
2019-05-25T23:50:10.712Z,978.12
2019-05-25T23:51:10.632Z,978.14
2019-05-25T23:52:10.558Z,978.12
2019-05-25T23:53:10.475Z,978.13
2019-05-25T23:54:10.400Z,978.12
2019-05-25T23:55:10.322Z,978.17
2019-05-25T23:56:10.246Z,978.16
2019-05-25T23:57:10.164Z,978.15
2019-05-25T23:58:10.091Z,978.17
2019-05-25T23:59:10.009Z,978.14
